Airfield :
LOGIN :

Register | Disclaimer

   EN    FR    IT 

 










Legend :    VFR   Marginal VFR   IFR   Intensive IFR   Very Intensive IFR
Visi :
Ceiling :
>= 8 km
>= 3000ft
5 to 8 km
1000 to 3000 ft
1500m to 5 km
500 to 1000 ft
800 to 1500m
200 to 500 ft
< 800m
< 200 ft
Symbols :   Thunderstorms  Fog  Heavy snow  Heavy precipitations  Wind > 20 kt
SIGMETs :     Misc.  Thunderstorms  Icing  Turbulence  Mountain Waves  Volcanic Ashes







- Airport Elevation : 5600 ft
- IATA code : SMV


LSZS - Samedan

CURRENT METAR :
  • 251420Z 22015KT 9999 VCSH SCT040 BKN048 06/02 Q1009 RMK R

EXPIRED METARs :
  • 251350Z 23015KT 9999 SCT050 BKN070 07/01 Q1009 RMK Q
  • 251320Z 22014KT 9999 SCT047 BKN060 07/01 Q1010 RMK P
  • 251250Z 22015KT 9999 BKN030 06/01 Q1010 RMK O
  • 251220Z 23017KT 9999 FEW037 BKN050 07/00 Q1010 RMK N
  • 251150Z 21013KT 9999 BKN047 07/00 Q1010 RMK M

TAF TAF LSZS
Valid from the 25 at 12:00 until the 25 at 21:00 UTC


251125Z 2512/2521 23015KT 9999 SCT040 BKN060 TX08/2513Z
BECMG 2513/2515 22020G30KT
BECMG 2515/2518 4500 SHRA BKN012
BECMG2518/2521 22005KT
ATIS : +41 81 834 93 24
No reported NOTAMs for that airfield.



MET'MAP, your aeronautical weather chart ! - Copyright ORBIFLY December 2007 - Disclaimer

ORBIFLY MET'MAP TEAM :

Programming & Development : Alexandra Zaïnal
Concept & Development : Baudouin d'Aumeries
Co-Development & Prog : Marc-Olivier Méhu
Technical & hardware support : Manuel Goepfert

Contact : metmap@orbifly.com




SOURCES & CREDITS :

   NOAA